Time;durP1;ratioP1;P1;durP2;ratioP2;P2;SDS_P1;SDS_P2;PMS_P1;PMS_P2;Temp;Humidity;BMP_temperature;BMP_pressure;BME280_temperature;BME280_humidity;BME280_pressure;Samples;Min_cycle;Max_cycle;Signal;HPM_P1;HPM_P2
2022/02/01 00:01:24;;;;;;;6.93;3.90;;;-0.40;99.90;;;;;;7290126;19;2004441;-81
2022/02/01 00:03:40;;;;;;;5.47;3.28;;;-0.50;99.90;;;;;;7287910;19;2004268;-81
2022/02/01 00:06:15;;;;;;;11.85;4.68;;;-0.50;99.90;;;;;;7349057;19;20329;-81
2022/02/01 00:09:04;;;;;;;10.77;3.60;;;-0.50;99.90;;;;;;7290413;19;2007261;-80
2022/02/01 00:14:31;;;;;;;11.85;4.82;;;-0.40;99.90;;;;;;7391674;19;20316;-81
2022/02/01 00:38:11;;;;;;;9.90;3.97;;;-0.30;99.90;;;;;;7392576;19;20320;-81
2022/02/01 00:40:38;;;;;;;6.75;3.75;;;-0.20;99.90;;;;;;7378447;19;20696;-80
2022/02/01 00:43:06;;;;;;;5.82;4.05;;;-0.10;99.90;;;;;;7389042;19;20332;-81
2022/02/01 00:45:34;;;;;;;5.43;3.83;;;-0.20;99.90;;;;;;7389583;19;20836;-81
2022/02/01 00:48:07;;;;;;;8.13;3.88;;;-0.10;99.90;;;;;;7391615;19;20322;-81
2022/02/01 00:50:33;;;;;;;12.60;4.60;;;-0.20;99.90;;;;;;7388830;19;20305;-81
2022/02/01 00:52:59;;;;;;;8.40;3.97;;;-0.20;99.90;;;;;;7389142;19;20342;-81
2022/02/01 00:55:25;;;;;;;9.85;4.10;;;-0.20;99.90;;;;;;7388008;19;20837;-81
2022/02/01 00:57:50;;;;;;;10.47;3.97;;;0.00;99.90;;;;;;7388461;19;20667;-80
2022/02/01 01:00:16;;;;;;;7.15;3.95;;;0.00;99.90;;;;;;7388482;19;20337;-82
2022/02/01 01:02:42;;;;;;;9.15;3.90;;;-0.10;99.90;;;;;;7388989;19;20968;-81
2022/02/01 01:05:08;;;;;;;8.00;4.17;;;-0.10;99.90;;;;;;7387674;19;20871;-81
2022/02/01 01:07:34;;;;;;;8.93;4.30;;;-0.10;99.90;;;;;;7389869;19;20293;-81
2022/02/01 01:10:01;;;;;;;7.78;4.28;;;0.00;99.90;;;;;;7388580;19;21287;-81
2022/02/01 01:12:29;;;;;;;5.50;4.05;;;0.00;99.90;;;;;;7395286;19;20400;-81
2022/02/01 01:46:00;;;;;;;7.90;4.07;;;0.10;99.90;;;;;;7388021;19;20327;-81
2022/02/01 01:53:55;;;;;;;11.15;4.32;;;0.20;99.90;;;;;;7387065;19;20340;-81
2022/02/01 01:56:21;;;;;;;7.27;4.17;;;0.20;99.90;;;;;;7392362;19;20312;-81
2022/02/01 01:58:46;;;;;;;6.70;3.90;;;0.30;99.90;;;;;;7389920;19;20317;-81
2022/02/01 02:01:12;;;;;;;12.68;4.38;;;0.30;99.90;;;;;;7388837;19;20317;-82
2022/02/01 02:03:42;;;;;;;9.23;3.92;;;0.30;99.90;;;;;;7387320;19;20301;-81
2022/02/01 02:06:08;;;;;;;6.93;3.88;;;0.30;99.90;;;;;;7388153;19;20900;-82
2022/02/01 02:08:34;;;;;;;10.43;4.32;;;0.30;99.90;;;;;;7387681;19;20377;-81
2022/02/01 02:11:10;;;;;;;7.13;4.03;;;0.30;99.90;;;;;;7389012;19;20308;-81
2022/02/01 02:16:23;;;;;;;8.67;4.40;;;0.40;99.90;;;;;;7291220;19;2004594;-83
2022/02/01 02:18:48;;;;;;;11.50;4.93;;;0.50;99.90;;;;;;7401021;19;20380;-82
2022/02/01 02:21:16;;;;;;;6.35;4.22;;;0.40;99.90;;;;;;7394210;19;20318;-81
2022/02/01 02:23:43;;;;;;;8.15;3.92;;;0.50;99.90;;;;;;7390292;19;20308;-81
2022/02/01 02:26:12;;;;;;;7.18;4.30;;;0.50;99.90;;;;;;7379321;19;20340;-81
2022/02/01 02:28:37;;;;;;;8.77;3.95;;;0.50;99.90;;;;;;7387380;19;20323;-81
2022/02/01 02:31:09;;;;;;;6.30;4.20;;;0.50;99.90;;;;;;7391094;19;20352;-81
2022/02/01 02:33:35;;;;;;;7.70;4.10;;;0.50;99.90;;;;;;7262574;19;2004566;-81
2022/02/01 02:36:13;;;;;;;5.50;3.60;;;0.50;99.90;;;;;;7387546;19;20400;-82
2022/02/01 02:38:44;;;;;;;5.97;3.83;;;0.50;99.90;;;;;;7388846;19;20876;-81
2022/02/01 02:41:30;;;;;;;8.30;4.55;;;0.50;99.90;;;;;;7388310;19;20343;-81
2022/02/01 02:46:43;;;;;;;7.70;4.18;;;0.60;99.90;;;;;;7285118;19;2006452;-82
2022/02/01 02:49:11;;;;;;;6.40;4.20;;;0.50;99.90;;;;;;7385803;19;20317;-83
2022/02/01 02:51:37;;;;;;;5.47;3.70;;;0.70;99.90;;;;;;7386522;19;20942;-83
2022/02/01 02:54:07;;;;;;;7.30;3.97;;;0.50;99.90;;;;;;7387967;19;20322;-80
2022/02/01 02:56:36;;;;;;;6.60;3.97;;;0.50;99.90;;;;;;7367156;19;20289;-80
2022/02/01 02:59:03;;;;;;;10.25;4.07;;;0.50;99.90;;;;;;7383817;19;20320;-80
2022/02/01 03:01:29;;;;;;;7.38;3.92;;;0.50;99.90;;;;;;7387490;19;20305;-81
2022/02/01 03:03:55;;;;;;;8.03;4.33;;;0.60;99.90;;;;;;7386769;19;20356;-79
2022/02/01 03:06:21;;;;;;;6.77;4.20;;;0.60;99.90;;;;;;7386000;19;20433;-80
2022/02/01 03:08:46;;;;;;;11.75;4.32;;;0.60;99.90;;;;;;7385877;19;20315;-81
2022/02/01 03:11:15;;;;;;;8.65;4.30;;;0.60;99.90;;;;;;7387830;19;20915;-80
2022/02/01 03:13:45;;;;;;;8.70;4.30;;;0.60;99.90;;;;;;7384643;19;20324;-81
2022/02/01 03:16:26;;;;;;;6.20;4.38;;;0.60;99.90;;;;;;7365228;19;20340;-80
2022/02/01 03:21:36;;;;;;;6.32;4.10;;;0.60;99.90;;;;;;7336264;19;20293;-80
2022/02/01 03:24:03;;;;;;;8.55;4.47;;;0.60;99.90;;;;;;7386859;19;20336;-82
2022/02/01 03:26:28;;;;;;;10.38;4.43;;;0.60;99.90;;;;;;7389586;19;20304;-81
2022/02/01 03:28:54;;;;;;;13.60;5.05;;;0.60;99.90;;;;;;7393048;19;20416;-80
2022/02/01 03:31:20;;;;;;;9.87;4.87;;;0.70;99.90;;;;;;7396351;19;20332;-82
2022/02/01 03:33:45;;;;;;;8.35;4.07;;;0.70;99.90;;;;;;7393649;19;21211;-80
2022/02/01 03:36:11;;;;;;;7.65;4.28;;;0.60;99.90;;;;;;7393775;19;20297;-80
2022/02/01 03:38:37;;;;;;;15.87;5.23;;;0.70;99.90;;;;;;7393355;19;20316;-81
2022/02/01 03:41:03;;;;;;;7.80;4.50;;;0.70;99.90;;;;;;7392276;19;20312;-80
2022/02/01 03:43:28;;;;;;;10.85;4.70;;;0.70;99.90;;;;;;7393972;19;20308;-81
2022/02/01 03:45:54;;;;;;;7.85;4.90;;;0.80;99.90;;;;;;7216089;19;3449636;-80
2022/02/01 03:48:22;;;;;;;6.47;4.50;;;0.70;99.90;;;;;;7376547;19;20308;-80
2022/02/01 03:50:48;;;;;;;8.98;4.07;;;0.70;99.90;;;;;;7376061;19;20705;-80
2022/02/01 03:53:14;;;;;;;9.07;4.47;;;0.70;99.90;;;;;;7395528;19;20316;-81
2022/02/01 03:55:39;;;;;;;8.68;4.65;;;0.80;99.90;;;;;;7395013;19;20293;-83
2022/02/01 03:58:05;;;;;;;9.07;4.63;;;0.80;99.90;;;;;;7397333;19;20309;-81
2022/02/01 04:00:31;;;;;;;9.50;5.72;;;0.80;99.90;;;;;;7397164;19;20317;-81
2022/02/01 04:03:00;;;;;;;8.38;5.15;;;0.90;99.90;;;;;;7397691;19;20303;-81
2022/02/01 04:05:25;;;;;;;10.70;5.15;;;0.80;99.90;;;;;;7402092;19;20353;-81
2022/02/01 04:07:51;;;;;;;8.47;5.10;;;0.80;99.90;;;;;;7398684;19;20342;-81
2022/02/01 04:10:19;;;;;;;8.02;4.97;;;0.80;99.90;;;;;;7396854;19;20854;-81
2022/02/01 04:12:52;;;;;;;8.65;5.00;;;0.90;99.90;;;;;;7397826;19;20300;-81
2022/02/01 04:15:23;;;;;;;8.27;4.78;;;0.90;99.90;;;;;;7387187;19;20812;-81
2022/02/01 04:17:49;;;;;;;7.67;4.87;;;0.90;99.90;;;;;;7396129;19;20301;-81
2022/02/01 04:20:15;;;;;;;9.53;5.17;;;0.80;99.90;;;;;;7396243;19;20472;-81
2022/02/01 04:22:40;;;;;;;8.20;5.17;;;0.90;99.90;;;;;;7397408;19;20333;-82
2022/02/01 04:25:07;;;;;;;8.97;4.63;;;0.90;99.90;;;;;;7395851;19;20312;-82
2022/02/01 04:27:32;;;;;;;6.80;4.03;;;0.90;99.90;;;;;;7395177;19;20320;-81
2022/02/01 04:30:08;;;;;;;6.50;4.07;;;1.00;99.90;;;;;;7399554;19;20300;-81
2022/02/01 04:32:36;;;;;;;12.52;4.47;;;0.90;99.90;;;;;;7398816;19;20297;-81
2022/02/01 04:35:03;;;;;;;10.05;4.55;;;1.00;99.90;;;;;;7395059;19;20309;-81
2022/02/01 04:37:29;;;;;;;8.70;4.57;;;0.90;99.90;;;;;;7395168;19;20412;-80
2022/02/01 04:39:55;;;;;;;6.22;4.32;;;1.00;99.90;;;;;;7395169;19;20308;-81
2022/02/01 04:42:21;;;;;;;6.88;3.70;;;1.00;99.90;;;;;;7395765;19;20837;-81
2022/02/01 04:44:46;;;;;;;8.35;4.30;;;1.00;99.90;;;;;;7395493;19;20301;-81
2022/02/01 04:47:12;;;;;;;7.82;4.07;;;1.10;99.90;;;;;;7393913;19;20308;-81
2022/02/01 04:49:38;;;;;;;5.78;4.22;;;1.10;99.90;;;;;;7394349;19;20314;-81
2022/02/01 04:52:04;;;;;;;4.80;3.57;;;1.10;99.90;;;;;;7396812;19;20309;-81
2022/02/01 04:54:30;;;;;;;4.68;3.72;;;1.10;99.90;;;;;;7393625;19;20324;-81
2022/02/01 04:56:55;;;;;;;9.07;3.55;;;1.10;99.90;;;;;;7396842;19;20391;-82
2022/02/01 04:59:21;;;;;;;9.23;4.07;;;1.10;99.90;;;;;;7393860;19;20316;-81
2022/02/01 05:01:47;;;;;;;5.17;4.20;;;1.10;99.90;;;;;;7395291;19;20308;-82
2022/02/01 05:04:20;;;;;;;5.57;3.20;;;1.20;99.90;;;;;;7375282;19;20265;-81
2022/02/01 05:06:50;;;;;;;4.97;3.65;;;1.10;99.90;;;;;;7368726;19;20355;-82
2022/02/01 05:09:16;;;;;;;14.48;4.20;;;1.10;99.90;;;;;;7395562;19;20944;-81
2022/02/01 05:11:42;;;;;;;7.73;4.20;;;1.20;99.90;;;;;;7396461;19;20309;-81
2022/02/01 05:14:13;;;;;;;8.55;4.05;;;1.10;99.90;;;;;;7394581;19;20301;-81
2022/02/01 05:19:34;;;;;;;6.53;3.77;;;1.20;99.90;;;;;;7395406;19;20308;-81
2022/02/01 05:22:03;;;;;;;9.55;4.20;;;1.10;99.90;;;;;;7395478;19;20788;-81
2022/02/01 05:24:30;;;;;;;4.75;4.03;;;1.10;99.90;;;;;;7392713;19;20316;-81
2022/02/01 05:26:57;;;;;;;7.78;4.63;;;1.10;99.90;;;;;;7395086;19;20327;-81
2022/02/01 05:29:23;;;;;;;6.43;4.32;;;1.10;99.90;;;;;;7395593;19;20312;-81
2022/02/01 05:31:51;;;;;;;8.43;4.65;;;1.10;99.90;;;;;;7362620;19;20320;-81
2022/02/01 05:37:19;;;;;;;6.70;3.92;;;1.10;99.90;;;;;;7381380;19;20320;-79
2022/02/01 05:39:45;;;;;;;7.00;4.32;;;1.10;99.90;;;;;;7391829;19;20325;-79
2022/02/01 05:42:16;;;;;;;5.32;3.60;;;1.10;99.90;;;;;;7392341;19;20309;-79
2022/02/01 05:44:41;;;;;;;10.88;5.10;;;1.10;99.90;;;;;;7390617;19;20324;-79
2022/02/01 05:47:07;;;;;;;6.95;4.30;;;1.20;99.90;;;;;;7398458;19;20879;-78
2022/02/01 05:49:33;;;;;;;5.85;4.20;;;1.10;99.90;;;;;;7391293;19;20316;-78
2022/02/01 05:52:01;;;;;;;5.90;4.27;;;1.10;99.90;;;;;;7391557;19;20870;-77
2022/02/01 05:54:28;;;;;;;10.82;4.32;;;1.10;99.90;;;;;;7388945;19;20331;-78
2022/02/01 05:57:33;;;;;;;6.97;4.30;;;1.20;99.90;;;;;;7354378;19;20325;-78
2022/02/01 06:00:04;;;;;;;8.00;4.60;;;1.20;99.90;;;;;;7286792;19;2004502;-78
2022/02/01 06:02:39;;;;;;;5.93;3.80;;;1.20;99.90;;;;;;7248533;19;2004453;-80
2022/02/01 06:05:08;;;;;;;6.30;4.17;;;1.20;99.90;;;;;;7341269;19;20633;-78
2022/02/01 06:07:35;;;;;;;5.70;3.95;;;1.20;99.90;;;;;;7393021;19;20325;-78
2022/02/01 06:10:01;;;;;;;6.50;4.20;;;1.20;99.90;;;;;;7366386;19;20696;-77
2022/02/01 06:12:42;;;;;;;6.85;4.60;;;1.30;99.90;;;;;;7391953;19;20301;-78
2022/02/01 06:15:18;;;;;;;6.32;4.28;;;1.20;99.90;;;;;;7282525;19;2004850;-80
2022/02/01 06:18:04;;;;;;;6.45;3.78;;;1.30;99.90;;;;;;7391886;19;20304;-78
2022/02/01 06:20:33;;;;;;;3.97;3.58;;;1.30;99.90;;;;;;7282758;19;2004421;-81
2022/02/01 06:22:59;;;;;;;5.68;3.75;;;1.30;99.90;;;;;;7387017;19;20312;-79
2022/02/01 06:25:48;;;;;;;7.88;4.78;;;1.30;99.90;;;;;;7386153;19;20324;-79
2022/02/01 06:28:23;;;;;;;8.48;4.00;;;1.40;99.90;;;;;;7266957;19;2004580;-79
2022/02/01 06:30:49;;;;;;;8.52;4.18;;;1.20;99.90;;;;;;7389552;19;20832;-79
2022/02/01 06:33:15;;;;;;;6.93;4.50;;;1.30;99.90;;;;;;7385470;19;20301;-81
2022/02/01 06:35:41;;;;;;;8.02;4.68;;;1.30;99.90;;;;;;7388375;19;20320;-81
2022/02/01 06:38:07;;;;;;;9.77;4.68;;;1.30;99.90;;;;;;7393137;19;20839;-80
2022/02/01 06:40:33;;;;;;;6.70;4.70;;;1.30;99.90;;;;;;7394459;19;20654;-78
2022/02/01 06:43:00;;;;;;;7.20;5.38;;;1.30;99.90;;;;;;7368552;19;20308;-78
2022/02/01 06:45:30;;;;;;;9.80;5.10;;;1.30;99.90;;;;;;7389864;19;20313;-77
2022/02/01 06:47:57;;;;;;;6.28;4.72;;;1.30;99.90;;;;;;7384222;19;20327;-78
2022/02/01 06:50:27;;;;;;;7.65;4.65;;;1.30;99.90;;;;;;7366615;19;20301;-78
2022/02/01 06:53:11;;;;;;;7.18;5.63;;;1.40;99.90;;;;;;7370692;19;20296;-77
2022/02/01 06:58:47;;;;;;;5.75;5.10;;;1.20;99.90;;;;;;7349399;19;20325;-79
2022/02/01 07:01:13;;;;;;;8.15;6.57;;;1.20;99.90;;;;;;7377741;19;20881;-77
2022/02/01 07:03:38;;;;;;;8.05;5.80;;;1.10;99.90;;;;;;7388735;19;20336;-76
2022/02/01 07:06:11;;;;;;;12.10;5.70;;;1.10;99.90;;;;;;7392851;19;20348;-79
2022/02/01 07:08:36;;;;;;;6.87;5.43;;;1.10;99.90;;;;;;7384015;19;20316;-79
2022/02/01 07:11:02;;;;;;;6.90;5.90;;;1.10;99.90;;;;;;7386111;19;20946;-79
2022/02/01 07:13:52;;;;;;;7.00;5.72;;;1.10;99.90;;;;;;7383200;19;20370;-81
2022/02/01 07:16:18;;;;;;;9.90;6.35;;;1.00;99.90;;;;;;7387761;19;20676;-79
2022/02/01 07:18:44;;;;;;;8.25;6.60;;;0.90;99.90;;;;;;7389435;19;20408;-80
2022/02/01 07:21:10;;;;;;;9.65;6.65;;;0.90;99.90;;;;;;7388726;19;20331;-78
2022/02/01 07:23:36;;;;;;;14.73;7.30;;;0.70;99.90;;;;;;7391748;19;20328;-79
2022/02/01 07:26:02;;;;;;;9.03;6.77;;;0.70;99.90;;;;;;7392610;19;20296;-79
2022/02/01 07:28:28;;;;;;;7.20;6.40;;;0.70;99.90;;;;;;7389447;19;20336;-80
2022/02/01 07:30:54;;;;;;;7.93;6.10;;;0.70;99.90;;;;;;7390379;19;20316;-80
2022/02/01 07:33:20;;;;;;;8.30;6.45;;;0.70;99.90;;;;;;7392255;19;20303;-79
2022/02/01 07:35:48;;;;;;;6.28;5.47;;;0.70;99.90;;;;;;7394530;19;20312;-78
2022/02/01 07:38:18;;;;;;;8.38;6.55;;;0.80;99.90;;;;;;7388063;19;20661;-81
2022/02/01 07:41:07;;;;;;;7.60;6.25;;;0.80;99.90;;;;;;7359996;19;20710;-78
2022/02/01 07:44:32;;;;;;;10.40;5.65;;;0.70;99.90;;;;;;7236172;19;20354;-80
2022/02/01 07:48:28;;;;;;;6.40;5.53;;;0.70;99.90;;;;;;7213022;19;2004764;-77
2022/02/01 07:51:08;;;;;;;8.60;5.75;;;0.70;99.90;;;;;;7077974;19;2004423;-80
2022/02/01 07:57:17;;;;;;;8.85;5.95;;;0.70;99.90;;;;;;7390277;19;20333;-77
2022/02/01 07:59:45;;;;;;;6.63;5.90;;;0.70;99.90;;;;;;7357976;19;20336;-77
2022/02/01 08:02:18;;;;;;;6.13;5.30;;;0.80;99.90;;;;;;7385922;19;20313;-80
2022/02/01 08:04:47;;;;;;;7.15;5.90;;;0.80;99.90;;;;;;7359934;19;20341;-81
2022/02/01 08:07:17;;;;;;;6.40;5.77;;;0.80;99.90;;;;;;7254389;19;2004419;-79
2022/02/01 08:09:49;;;;;;;5.90;5.10;;;0.90;99.90;;;;;;7386986;19;20388;-82
2022/02/01 08:13:37;;;;;;;7.70;5.27;;;0.90;99.90;;;;;;7365179;19;20332;-80
2022/02/01 08:18:55;;;;;;;9.57;5.80;;;1.00;99.90;;;;;;7384736;19;20317;-79
2022/02/01 08:21:27;;;;;;;8.38;5.65;;;1.00;99.90;;;;;;7392250;19;20326;-79
2022/02/01 08:23:53;;;;;;;8.20;6.22;;;1.10;99.90;;;;;;7392185;19;20312;-79
2022/02/01 08:26:18;;;;;;;6.85;5.43;;;1.10;99.90;;;;;;7392517;19;20304;-81
2022/02/01 08:28:44;;;;;;;5.97;5.38;;;1.10;99.90;;;;;;7394122;19;20324;-79
2022/02/01 08:31:12;;;;;;;5.90;5.27;;;1.20;99.90;;;;;;7395788;19;20324;-80
2022/02/01 08:33:42;;;;;;;9.05;5.80;;;1.20;99.90;;;;;;7392516;19;21009;-79
2022/02/01 08:36:39;;;;;;;9.10;5.57;;;1.30;99.90;;;;;;7392793;19;20391;-80
2022/02/01 08:39:23;;;;;;;6.50;5.68;;;1.30;99.90;;;;;;7283730;19;2004449;-80
2022/02/01 08:41:58;;;;;;;6.47;5.72;;;1.40;99.90;;;;;;7284932;19;2004591;-78
2022/02/01 08:44:34;;;;;;;5.78;5.00;;;1.40;99.90;;;;;;7374121;19;20848;-80
2022/02/01 08:47:20;;;;;;;6.45;5.40;;;1.50;99.90;;;;;;7389669;19;20316;-79
2022/02/01 08:49:48;;;;;;;7.40;5.95;;;1.50;99.90;;;;;;7386167;19;20743;-79
2022/02/01 08:52:31;;;;;;;9.83;5.23;;;1.60;99.90;;;;;;7389447;19;20331;-80
2022/02/01 08:55:19;;;;;;;6.75;4.97;;;1.60;99.90;;;;;;7390053;19;20324;-79
2022/02/01 08:57:50;;;;;;;6.95;5.85;;;1.70;99.90;;;;;;7385581;19;20316;-79
2022/02/01 09:00:21;;;;;;;6.97;5.32;;;1.80;99.90;;;;;;7388160;19;20324;-81
2022/02/01 09:02:47;;;;;;;6.38;5.20;;;1.90;99.90;;;;;;7390615;19;20739;-79
2022/02/01 09:05:14;;;;;;;7.32;5.20;;;1.90;99.90;;;;;;7389732;19;20300;-79
2022/02/01 09:07:41;;;;;;;7.65;5.32;;;2.00;99.90;;;;;;7391934;19;20316;-79
2022/02/01 09:10:10;;;;;;;8.35;5.45;;;1.90;99.90;;;;;;7385877;19;20342;-80
2022/02/01 09:12:36;;;;;;;6.88;5.13;;;2.00;99.90;;;;;;7388547;19;20333;-80
2022/02/01 09:15:37;;;;;;;5.78;5.03;;;2.00;99.90;;;;;;7389723;19;20843;-81
2022/02/01 09:18:19;;;;;;;5.95;4.63;;;2.10;99.90;;;;;;7281148;19;2005560;-80
2022/02/01 09:20:46;;;;;;;8.30;4.70;;;2.10;99.90;;;;;;7395143;19;20337;-82
2022/02/01 09:23:14;;;;;;;6.43;5.07;;;2.10;99.90;;;;;;7397622;19;20328;-79
2022/02/01 09:25:41;;;;;;;13.05;8.15;;;2.10;99.90;;;;;;7381542;19;20324;-80
2022/02/01 09:28:07;;;;;;;10.57;7.55;;;2.10;99.90;;;;;;7390471;19;20396;-81
2022/02/01 09:30:34;;;;;;;7.38;5.70;;;2.20;99.90;;;;;;7398761;19;20308;-82
2022/02/01 09:33:01;;;;;;;9.68;5.78;;;2.20;99.90;;;;;;7392191;19;20345;-80
2022/02/01 09:35:31;;;;;;;6.05;5.22;;;2.20;99.90;;;;;;7348830;19;20304;-80
2022/02/01 09:38:37;;;;;;;8.10;5.40;;;2.20;99.90;;;;;;7323597;19;20318;-81
2022/02/01 09:41:24;;;;;;;6.60;5.45;;;2.20;99.90;;;;;;7366975;19;20293;-81
2022/02/01 09:43:52;;;;;;;7.70;5.43;;;2.20;99.90;;;;;;7369090;19;20337;-81
2022/02/01 09:46:23;;;;;;;8.73;5.70;;;2.20;99.90;;;;;;7382469;19;20428;-80
2022/02/01 09:48:50;;;;;;;8.50;5.32;;;2.20;99.90;;;;;;7383348;19;20325;-79
2022/02/01 09:51:16;;;;;;;6.35;5.30;;;2.20;99.90;;;;;;7386666;19;20327;-80
2022/02/01 09:53:42;;;;;;;10.77;5.45;;;2.30;99.90;;;;;;7382480;19;20305;-80
2022/02/01 09:56:28;;;;;;;5.90;4.70;;;2.30;99.90;;;;;;7390202;19;20335;-80
2022/02/01 09:58:59;;;;;;;7.25;4.72;;;2.40;99.90;;;;;;7266000;19;2005536;-81
2022/02/01 10:01:31;;;;;;;6.57;4.60;;;2.40;99.90;;;;;;7390383;19;20305;-79
2022/02/01 10:04:08;;;;;;;8.90;5.40;;;2.50;99.90;;;;;;7383262;19;20334;-82
2022/02/01 10:06:36;;;;;;;8.88;4.70;;;2.50;99.90;;;;;;7391744;19;20641;-80
2022/02/01 10:09:17;;;;;;;8.15;4.97;;;2.60;99.90;;;;;;7387879;19;20324;-79
2022/02/01 10:11:49;;;;;;;7.05;4.43;;;2.60;99.90;;;;;;7388005;19;20305;-81
2022/02/01 10:14:31;;;;;;;13.13;4.90;;;2.60;99.90;;;;;;7363234;19;20388;-77
2022/02/01 10:17:28;;;;;;;6.32;4.68;;;2.70;99.90;;;;;;7293926;19;2004475;-81
2022/02/01 10:19:54;;;;;;;5.93;3.70;;;2.70;99.90;;;;;;7390470;19;20336;-81
2022/02/01 10:22:32;;;;;;;5.50;4.30;;;2.70;99.90;;;;;;7383657;19;21782;-79
2022/02/01 10:24:58;;;;;;;7.72;4.35;;;2.80;99.90;;;;;;7391916;19;20836;-78
2022/02/01 10:27:26;;;;;;;8.80;4.50;;;2.80;99.90;;;;;;7390975;19;20388;-78
2022/02/01 10:30:04;;;;;;;4.22;3.70;;;2.80;99.90;;;;;;7376306;19;20680;-79
2022/02/01 10:32:49;;;;;;;5.30;3.70;;;2.90;99.90;;;;;;7391582;19;20355;-79
2022/02/01 10:35:32;;;;;;;5.10;3.67;;;3.00;99.90;;;;;;7284828;19;2004796;-79
2022/02/01 10:38:03;;;;;;;6.75;4.28;;;2.90;99.90;;;;;;7366632;19;20329;-77
2022/02/01 10:40:43;;;;;;;7.68;4.30;;;3.00;99.90;;;;;;7366186;19;20327;-78
2022/02/01 10:43:21;;;;;;;5.43;3.85;;;3.10;99.90;;;;;;7388805;19;20415;-77
2022/02/01 10:45:48;;;;;;;6.38;3.85;;;3.20;99.90;;;;;;7391479;19;20328;-79
2022/02/01 10:48:15;;;;;;;6.90;3.70;;;3.20;99.90;;;;;;7387034;19;20315;-80
2022/02/01 10:50:42;;;;;;;7.33;3.87;;;3.20;99.90;;;;;;7368501;19;20391;-77
2022/02/01 10:53:19;;;;;;;8.70;6.27;;;3.20;99.90;;;;;;7388781;19;20321;-79
2022/02/01 10:55:45;;;;;;;6.25;3.58;;;3.20;99.90;;;;;;7362284;19;20317;-79
2022/02/01 10:58:11;;;;;;;4.65;3.72;;;3.20;99.90;;;;;;7391870;19;20400;-79
2022/02/01 11:00:38;;;;;;;5.25;3.47;;;3.20;99.90;;;;;;7396665;19;20361;-78
2022/02/01 11:03:06;;;;;;;7.57;3.95;;;3.30;99.90;;;;;;7374982;19;20316;-78
2022/02/01 11:05:32;;;;;;;3.20;2.80;;;3.20;99.90;;;;;;7388747;19;20313;-76
2022/02/01 11:07:58;;;;;;;4.38;3.58;;;3.30;99.90;;;;;;7382953;19;20333;-78
2022/02/01 11:10:26;;;;;;;6.78;3.50;;;3.40;99.90;;;;;;7396381;19;20325;-82
2022/02/01 11:12:52;;;;;;;4.97;3.13;;;3.20;99.90;;;;;;7397230;19;20673;-78
2022/02/01 11:15:23;;;;;;;11.18;3.78;;;3.20;99.90;;;;;;7381548;19;20317;-78
2022/02/01 11:17:51;;;;;;;7.30;3.43;;;3.20;99.90;;;;;;7378647;19;20376;-78
2022/02/01 11:20:29;;;;;;;6.05;3.40;;;3.20;99.90;;;;;;7366614;19;20332;-78
2022/02/01 11:23:17;;;;;;;4.22;2.97;;;3.10;99.90;;;;;;7388407;19;20328;-77
2022/02/01 11:25:51;;;;;;;4.63;3.05;;;3.30;99.90;;;;;;7388260;19;20383;-78
2022/02/01 11:31:01;;;;;;;4.65;2.80;;;3.20;99.90;;;;;;7372160;19;20389;-80
2022/02/01 11:33:35;;;;;;;8.30;3.30;;;3.30;99.90;;;;;;7384235;19;20335;-78
2022/02/01 11:36:03;;;;;;;7.25;3.05;;;3.30;99.90;;;;;;7365883;19;21200;-81
2022/02/01 11:38:29;;;;;;;3.55;2.70;;;3.30;99.90;;;;;;7385976;19;20335;-80
2022/02/01 11:41:06;;;;;;;7.32;2.92;;;3.40;99.90;;;;;;7385490;19;20332;-77
2022/02/01 11:43:32;;;;;;;4.30;2.60;;;3.30;99.90;;;;;;7359469;19;20324;-77
2022/02/01 11:46:04;;;;;;;7.57;2.93;;;3.30;99.90;;;;;;7387541;19;20309;-81
2022/02/01 11:48:31;;;;;;;9.13;5.73;;;3.30;99.90;;;;;;7394468;19;20651;-78
2022/02/01 11:51:10;;;;;;;6.28;2.67;;;3.40;99.90;;;;;;7395161;19;20670;-77
2022/02/01 11:53:38;;;;;;;7.35;2.60;;;3.60;99.90;;;;;;7393612;19;20370;-77
2022/02/01 11:56:05;;;;;;;3.00;2.10;;;3.60;99.90;;;;;;7393520;19;20312;-77
2022/02/01 11:58:45;;;;;;;5.30;2.47;;;3.70;99.90;;;;;;7395665;19;20317;-79
2022/02/01 12:01:31;;;;;;;4.22;2.70;;;3.70;99.90;;;;;;7291612;19;2004302;-79
2022/02/01 12:04:01;;;;;;;7.50;2.67;;;3.70;99.90;;;;;;7299706;19;2007760;-79
2022/02/01 12:06:37;;;;;;;5.93;2.57;;;3.80;99.90;;;;;;7401161;19;20317;-79
2022/02/01 12:09:09;;;;;;;5.53;1.98;;;3.70;99.90;;;;;;7270573;19;2004545;-77
2022/02/01 12:11:35;;;;;;;2.95;1.90;;;3.80;99.90;;;;;;7393503;19;20332;-77
2022/02/01 12:14:04;;;;;;;2.90;2.00;;;3.80;99.90;;;;;;7389435;19;20654;-80
2022/02/01 12:16:30;;;;;;;3.35;2.15;;;3.70;99.90;;;;;;7379009;19;20337;-77
2022/02/01 12:19:06;;;;;;;5.50;2.33;;;3.70;99.90;;;;;;7393079;19;20293;-78
2022/02/01 12:21:50;;;;;;;4.07;2.47;;;3.70;99.90;;;;;;7370219;19;20342;-78
2022/02/01 12:24:28;;;;;;;5.57;2.65;;;3.70;99.90;;;;;;7391608;19;20349;-78
2022/02/01 12:27:02;;;;;;;2.60;2.20;;;3.70;99.90;;;;;;7381437;19;20317;-78
2022/02/01 12:29:28;;;;;;;3.83;2.30;;;3.80;99.90;;;;;;7387295;19;20919;-78
2022/02/01 12:31:55;;;;;;;4.40;2.47;;;3.80;99.90;;;;;;7374127;19;20293;-78
2022/02/01 12:34:21;;;;;;;5.25;2.70;;;3.80;99.90;;;;;;7379166;19;20739;-79
2022/02/01 12:36:53;;;;;;;6.82;2.60;;;3.80;99.90;;;;;;7390561;19;20316;-80
2022/02/01 12:39:34;;;;;;;6.13;2.92;;;3.80;99.90;;;;;;7391227;19;21045;-77
2022/02/01 12:47:23;;;;;;;3.08;1.92;;;3.90;99.90;;;;;;7398910;19;20321;-78
2022/02/01 12:49:53;;;;;;;8.40;2.50;;;3.80;99.90;;;;;;7392537;19;20300;-78
2022/02/01 12:52:29;;;;;;;4.15;2.33;;;3.80;99.90;;;;;;7390865;19;21275;-78
2022/02/01 12:55:03;;;;;;;7.57;2.50;;;3.70;99.90;;;;;;7391165;19;20320;-79
2022/02/01 12:57:31;;;;;;;3.07;2.10;;;3.70;99.90;;;;;;7400969;19;20382;-79
2022/02/01 13:00:00;;;;;;;4.13;2.15;;;3.70;99.90;;;;;;7394932;19;20339;-77
2022/02/01 13:02:30;;;;;;;4.28;2.20;;;3.60;99.90;;;;;;7368810;19;20304;-78
2022/02/01 13:05:19;;;;;;;8.70;2.35;;;3.60;99.90;;;;;;7290305;19;2004679;-78
2022/02/01 13:08:10;;;;;;;4.20;2.40;;;3.70;99.90;;;;;;7388159;19;20313;-78
2022/02/01 13:16:40;;;;;;;3.35;2.10;;;3.80;99.90;;;;;;7253245;19;20365;-78
2022/02/01 13:22:16;;;;;;;6.30;2.20;;;3.80;99.90;;;;;;7222755;19;2005606;-79
2022/02/01 13:24:42;;;;;;;6.20;2.25;;;3.80;99.90;;;;;;7390543;19;20305;-78
2022/02/01 13:27:20;;;;;;;2.97;1.80;;;3.80;99.90;;;;;;7389419;19;20399;-79
2022/02/01 13:30:11;;;;;;;3.92;2.15;;;3.80;99.90;;;;;;7391952;19;20668;-79
2022/02/01 13:32:39;;;;;;;2.53;1.95;;;3.80;99.90;;;;;;7287893;19;2005927;-80
2022/02/01 13:35:11;;;;;;;2.35;1.67;;;3.80;99.90;;;;;;7388922;19;20297;-79
2022/02/01 13:37:47;;;;;;;2.92;1.90;;;3.80;99.90;;;;;;7386885;19;20308;-80
2022/02/01 13:40:29;;;;;;;5.53;2.30;;;3.80;99.90;;;;;;7368437;19;20338;-79
2022/02/01 13:42:57;;;;;;;2.72;1.98;;;3.80;99.90;;;;;;7389996;19;20859;-79
2022/02/01 13:45:37;;;;;;;4.10;2.40;;;3.80;99.90;;;;;;7391106;19;20352;-79
2022/02/01 13:48:03;;;;;;;5.72;2.33;;;3.80;99.90;;;;;;7395439;19;20345;-80
2022/02/01 13:50:29;;;;;;;2.38;1.75;;;3.70;99.90;;;;;;7402218;19;20300;-83
2022/02/01 13:53:00;;;;;;;5.05;1.80;;;3.70;99.90;;;;;;7404009;19;20728;-79
2022/02/01 13:55:28;;;;;;;3.70;2.03;;;3.60;99.90;;;;;;7393529;19;20327;-79
2022/02/01 13:58:03;;;;;;;4.35;2.00;;;3.60;99.90;;;;;;7391219;19;20325;-78
2022/02/01 14:00:33;;;;;;;4.93;2.47;;;3.50;99.90;;;;;;7388997;19;20661;-80
2022/02/01 14:03:20;;;;;;;3.53;2.13;;;3.50;99.90;;;;;;7391713;19;20628;-81
2022/02/01 14:06:09;;;;;;;3.37;2.00;;;3.40;99.90;;;;;;7286031;19;2004503;-79
2022/02/01 14:08:49;;;;;;;3.88;2.08;;;3.30;99.90;;;;;;7358887;19;20328;-78
2022/02/01 14:34:57;;;;;;;3.92;1.95;;;3.00;99.90;;;;;;7392295;19;20324;-80
2022/02/01 14:37:29;;;;;;;3.50;1.90;;;2.90;99.90;;;;;;7390715;19;20320;-80
2022/02/01 14:45:08;;;;;;;2.20;2.00;;;2.80;99.90;;;;;;7301893;19;2008935;-80
2022/02/01 14:47:34;;;;;;;4.77;2.20;;;2.70;99.90;;;;;;7392743;19;20312;-80
2022/02/01 14:50:00;;;;;;;4.10;2.40;;;2.70;99.90;;;;;;7391361;19;20336;-80
2022/02/01 14:52:26;;;;;;;3.10;2.10;;;2.70;99.90;;;;;;7393887;19;20683;-80
2022/02/01 14:54:56;;;;;;;2.47;1.92;;;2.70;99.90;;;;;;7369899;19;20336;-80
2022/02/01 15:13:52;;;;;;;3.88;2.05;;;2.40;99.90;;;;;;7271503;19;2004549;-79
2022/02/01 15:17:54;;;;;;;2.65;2.42;;;2.40;99.90;;;;;;7403937;19;20363;-80
2022/02/01 15:20:54;;;;;;;4.35;2.20;;;2.40;99.90;;;;;;7166975;19;2004409;-80
2022/02/01 15:23:30;;;;;;;1.98;1.80;;;2.40;99.90;;;;;;7393232;19;20347;-80
2022/02/01 15:25:57;;;;;;;1.90;1.70;;;2.40;99.90;;;;;;7376617;19;20324;-79
2022/02/01 15:28:23;;;;;;;2.03;1.83;;;2.30;99.90;;;;;;7395401;19;20316;-80
2022/02/01 15:30:49;;;;;;;3.22;2.13;;;2.30;99.90;;;;;;7391430;19;20300;-79
2022/02/01 15:33:18;;;;;;;3.17;2.00;;;2.30;99.90;;;;;;7344108;19;20312;-80
2022/02/01 15:35:45;;;;;;;2.67;2.20;;;2.30;99.90;;;;;;7363763;19;20329;-80
2022/02/01 15:38:40;;;;;;;2.17;1.67;;;2.20;99.90;;;;;;7347297;19;20308;-83
2022/02/01 15:59:18;;;;;;;2.00;1.90;;;2.20;99.90;;;;;;7310494;19;20323;-81
2022/02/01 16:02:33;;;;;;;2.20;2.00;;;2.20;99.90;;;;;;7323034;19;20301;-80